createdAt,value
2022-10-01T00:02:07.434Z,97.22
2022-10-01T00:04:37.109Z,97.19
2022-10-01T00:07:07.617Z,97.15
2022-10-01T00:09:34.799Z,97.40
2022-10-01T00:12:02.165Z,97.34
2022-10-01T00:14:29.982Z,97.44
2022-10-01T00:16:58.144Z,97.62
2022-10-01T00:19:25.319Z,97.73
2022-10-01T00:21:52.449Z,97.90
2022-10-01T00:24:19.616Z,97.96
2022-10-01T00:26:47.675Z,98.08
2022-10-01T00:29:16.055Z,98.08
2022-10-01T00:31:43.474Z,98.06
2022-10-01T00:34:12.417Z,98.14
2022-10-01T00:36:39.859Z,98.27
2022-10-01T00:39:06.921Z,98.50
2022-10-01T00:41:35.325Z,98.34
2022-10-01T00:44:25.360Z,98.37
2022-10-01T00:46:53.240Z,98.37
2022-10-01T00:49:22.454Z,98.19
2022-10-01T00:51:53.479Z,98.52
2022-10-01T00:54:24.532Z,98.43
2022-10-01T00:56:54.424Z,98.35
2022-10-01T00:59:21.710Z,98.46
2022-10-01T01:01:49.350Z,98.42
2022-10-01T01:04:16.979Z,98.69
2022-10-01T01:06:48.092Z,98.76
2022-10-01T01:09:15.297Z,99.02
2022-10-01T01:11:48.543Z,99.18
2022-10-01T01:14:27.693Z,99.19
2022-10-01T01:17:09.006Z,99.15
2022-10-01T01:19:59.136Z,99.02
2022-10-01T01:22:27.294Z,99.16
2022-10-01T01:25:06.664Z,99.13
2022-10-01T01:27:38.664Z,99.01
2022-10-01T01:30:09.538Z,99.20
2022-10-01T01:32:39.535Z,99.43
2022-10-01T01:35:09.302Z,99.35
2022-10-01T01:37:42.364Z,99.33
2022-10-01T01:40:11.752Z,99.42
2022-10-01T01:42:42.036Z,99.44
2022-10-01T01:45:14.025Z,99.41
2022-10-01T01:47:42.464Z,98.97
2022-10-01T01:50:11.289Z,98.36
2022-10-01T01:52:38.937Z,98.46
2022-10-01T01:55:08.877Z,99.28
2022-10-01T01:57:44.071Z,99.23
2022-10-01T02:00:13.103Z,98.75
2022-10-01T02:02:41.832Z,98.42
2022-10-01T02:05:11.659Z,98.46
2022-10-01T02:08:22.544Z,98.19
2022-10-01T02:10:54.366Z,98.27
2022-10-01T02:13:43.869Z,99.48
2022-10-01T02:16:11.519Z,100.00
2022-10-01T02:18:48.540Z,100.00
2022-10-01T02:21:44.679Z,100.00
2022-10-01T02:24:31.520Z,100.00
2022-10-01T02:27:01.475Z,100.00
2022-10-01T02:29:29.855Z,100.00
2022-10-01T02:31:57.935Z,100.00
2022-10-01T02:34:29.672Z,100.00
2022-10-01T02:36:59.995Z,100.00
2022-10-01T02:39:28.260Z,100.00
2022-10-01T02:41:56.545Z,100.00
2022-10-01T02:44:40.596Z,100.00
2022-10-01T02:47:38.114Z,100.00
2022-10-01T02:50:09.855Z,100.00
2022-10-01T02:52:44.537Z,100.00
2022-10-01T02:55:20.554Z,100.00
2022-10-01T02:57:47.950Z,100.00
2022-10-01T03:00:17.676Z,100.00
2022-10-01T03:02:44.873Z,100.00
2022-10-01T03:05:12.157Z,100.00
2022-10-01T03:07:41.376Z,100.00
2022-10-01T03:10:09.962Z,100.00
2022-10-01T03:12:37.293Z,99.96
2022-10-01T03:15:05.395Z,99.84
2022-10-01T03:17:32.535Z,99.50
2022-10-01T03:19:59.872Z,99.44
2022-10-01T03:22:27.437Z,98.74
2022-10-01T03:24:54.592Z,98.22
2022-10-01T03:27:22.645Z,98.58
2022-10-01T03:29:50.424Z,98.53
2022-10-01T03:32:18.175Z,98.42
2022-10-01T03:34:45.534Z,98.31
2022-10-01T03:37:12.992Z,98.38
2022-10-01T03:39:40.151Z,98.08
2022-10-01T03:42:07.590Z,98.15
2022-10-01T03:44:35.055Z,97.94
2022-10-01T03:47:02.309Z,98.00
2022-10-01T03:49:29.875Z,98.18
2022-10-01T03:51:57.533Z,98.72
2022-10-01T03:54:26.013Z,98.47
2022-10-01T03:56:53.235Z,98.42
2022-10-01T03:59:21.236Z,97.96
2022-10-01T04:01:49.730Z,98.32
2022-10-01T04:04:16.977Z,98.42
2022-10-01T04:06:44.362Z,97.95
2022-10-01T04:09:11.576Z,97.76
2022-10-01T04:11:39.964Z,97.13
2022-10-01T04:14:07.188Z,96.60
2022-10-01T04:16:36.673Z,96.71
2022-10-01T04:19:04.880Z,97.32
2022-10-01T04:21:32.514Z,97.36
2022-10-01T04:24:00.491Z,97.64
2022-10-01T04:26:27.656Z,97.92
2022-10-01T04:28:54.916Z,98.01
2022-10-01T04:31:24.786Z,98.22
2022-10-01T04:33:56.944Z,98.15
2022-10-01T04:36:25.034Z,98.01
2022-10-01T04:39:00.864Z,97.98
2022-10-01T04:41:31.299Z,97.65
2022-10-01T04:44:00.399Z,97.91
2022-10-01T04:46:30.638Z,98.55
2022-10-01T04:48:58.200Z,98.45
2022-10-01T04:51:25.380Z,98.67
2022-10-01T04:53:52.589Z,98.36
2022-10-01T04:56:19.714Z,97.92
2022-10-01T04:58:46.833Z,97.78
2022-10-01T05:01:14.133Z,97.93
2022-10-01T05:03:41.720Z,98.21
2022-10-01T05:06:08.882Z,98.39
2022-10-01T05:08:37.340Z,98.25
2022-10-01T05:11:04.455Z,98.74
2022-10-01T05:13:32.147Z,98.51
2022-10-01T05:15:59.662Z,98.65
2022-10-01T05:18:27.151Z,98.48
2022-10-01T05:20:54.207Z,97.79
2022-10-01T05:23:21.333Z,97.81
2022-10-01T05:25:48.428Z,98.00
2022-10-01T05:28:21.400Z,98.35
2022-10-01T05:30:49.417Z,98.39
2022-10-01T05:33:16.534Z,98.56
2022-10-01T05:35:44.809Z,98.90
2022-10-01T05:38:11.965Z,98.78
2022-10-01T05:40:39.122Z,98.86
2022-10-01T05:43:06.346Z,99.14
2022-10-01T05:45:34.096Z,99.34
2022-10-01T05:48:03.313Z,99.42
2022-10-01T05:50:32.809Z,99.23
2022-10-01T05:53:01.196Z,99.50
2022-10-01T05:55:33.662Z,99.37
2022-10-01T05:58:02.852Z,98.91
2022-10-01T06:00:30.852Z,98.99
2022-10-01T06:02:59.375Z,99.13
2022-10-01T06:05:28.012Z,99.21
2022-10-01T06:07:55.549Z,99.42
2022-10-01T06:10:23.760Z,99.59
2022-10-01T06:12:51.672Z,99.56
2022-10-01T06:15:19.658Z,99.21
2022-10-01T06:17:47.183Z,98.83
2022-10-01T06:20:19.443Z,98.76
2022-10-01T06:22:54.533Z,99.36
2022-10-01T06:25:21.894Z,99.08
2022-10-01T06:27:58.376Z,99.38
2022-10-01T06:30:32.178Z,99.63
2022-10-01T06:33:07.828Z,99.43
2022-10-01T06:35:36.061Z,99.54
2022-10-01T06:38:03.730Z,99.29
2022-10-01T06:40:31.535Z,99.45
2022-10-01T06:42:59.496Z,99.48
2022-10-01T06:45:28.323Z,99.79
2022-10-01T06:47:57.013Z,99.80
2022-10-01T06:50:24.971Z,99.96
2022-10-01T06:52:54.946Z,99.97
2022-10-01T06:55:25.993Z,99.99
2022-10-01T06:57:59.417Z,100.00
2022-10-01T07:00:32.015Z,100.00
2022-10-01T07:02:59.948Z,100.00
2022-10-01T07:05:27.796Z,100.00
2022-10-01T07:07:55.563Z,100.00
2022-10-01T07:10:24.237Z,100.00
2022-10-01T07:12:51.591Z,100.00
2022-10-01T07:15:21.949Z,100.00
2022-10-01T07:17:50.863Z,100.00
2022-10-01T07:20:20.475Z,100.00
2022-10-01T07:22:48.779Z,100.00
2022-10-01T07:25:16.557Z,100.00
2022-10-01T07:27:43.796Z,100.00
2022-10-01T07:30:11.772Z,100.00
2022-10-01T07:32:38.940Z,100.00
2022-10-01T07:35:07.318Z,100.00
2022-10-01T07:37:35.256Z,100.00
2022-10-01T07:40:07.351Z,99.98
2022-10-01T07:42:36.006Z,100.00
2022-10-01T07:45:06.905Z,99.83
2022-10-01T07:47:46.715Z,99.19
2022-10-01T07:50:14.389Z,99.05
2022-10-01T07:52:41.519Z,99.03
2022-10-01T07:55:11.488Z,98.67
2022-10-01T07:57:39.642Z,98.38
2022-10-01T08:00:07.710Z,98.52
2022-10-01T08:02:39.708Z,98.07
2022-10-01T08:05:20.721Z,97.94
2022-10-01T08:07:51.906Z,97.79
2022-10-01T08:10:23.601Z,97.65
2022-10-01T08:13:10.869Z,97.44
2022-10-01T08:15:38.068Z,97.04
2022-10-01T08:18:05.929Z,96.86
2022-10-01T08:20:33.265Z,96.82
2022-10-01T08:23:10.222Z,96.65
2022-10-01T08:25:42.891Z,96.17
2022-10-01T08:28:11.544Z,95.88
2022-10-01T08:30:40.785Z,95.44
2022-10-01T08:33:13.188Z,94.93
2022-10-01T08:35:42.515Z,94.62
2022-10-01T08:38:11.311Z,94.47
2022-10-01T08:40:47.599Z,94.50
2022-10-01T08:43:34.540Z,94.55
2022-10-01T08:46:04.497Z,94.29
2022-10-01T08:48:40.997Z,93.88
2022-10-01T08:51:36.532Z,93.50
2022-10-01T08:54:42.998Z,93.39
2022-10-01T08:57:32.539Z,92.92
2022-10-01T09:00:01.871Z,92.19
2022-10-01T09:02:38.988Z,91.71
2022-10-01T09:05:21.190Z,91.36
2022-10-01T09:08:06.695Z,91.17
2022-10-01T09:10:59.014Z,90.85
2022-10-01T09:13:54.856Z,91.13
2022-10-01T09:16:36.655Z,90.58
2022-10-01T09:19:34.298Z,90.27
2022-10-01T09:22:17.014Z,89.87
2022-10-01T09:24:47.376Z,89.38
2022-10-01T09:27:18.075Z,88.96
2022-10-01T09:30:05.076Z,89.09
2022-10-01T09:32:36.185Z,88.82
2022-10-01T09:35:25.677Z,87.66
2022-10-01T09:37:58.779Z,87.64
2022-10-01T09:40:38.898Z,87.39
2022-10-01T09:43:09.244Z,87.12
2022-10-01T09:45:38.127Z,86.78
2022-10-01T09:48:20.677Z,86.01
2022-10-01T09:50:56.439Z,85.80
2022-10-01T09:53:37.792Z,85.69
2022-10-01T09:56:10.955Z,85.03
2022-10-01T09:58:40.589Z,84.53
2022-10-01T10:01:39.293Z,84.09
2022-10-01T10:04:06.534Z,83.78
2022-10-01T10:06:34.213Z,83.53
2022-10-01T10:09:02.578Z,83.25
2022-10-01T10:11:31.839Z,82.92
2022-10-01T10:14:01.800Z,82.29
2022-10-01T10:16:35.528Z,82.01
2022-10-01T10:19:25.106Z,81.51
2022-10-01T10:21:55.007Z,81.17
2022-10-01T10:24:28.025Z,80.82
2022-10-01T10:26:58.895Z,80.72
2022-10-01T10:29:37.379Z,80.50
2022-10-01T10:32:28.126Z,80.14
2022-10-01T10:35:02.746Z,79.98
2022-10-01T10:37:33.298Z,79.69
2022-10-01T10:40:01.160Z,79.32
2022-10-01T10:42:30.255Z,79.56
2022-10-01T10:45:03.658Z,79.11
2022-10-01T10:47:33.669Z,78.49
2022-10-01T10:50:06.755Z,78.23
2022-10-01T10:52:36.717Z,77.89
2022-10-01T10:55:25.659Z,76.49
2022-10-01T10:57:57.487Z,75.79
2022-10-01T11:00:27.077Z,75.28
2022-10-01T11:03:04.433Z,75.71
2022-10-01T11:05:33.384Z,75.01
2022-10-01T11:08:04.311Z,74.46
2022-10-01T11:10:47.036Z,74.24
2022-10-01T11:13:17.986Z,73.74
2022-10-01T11:16:10.644Z,71.67
2022-10-01T11:19:06.035Z,70.78
2022-10-01T11:21:42.016Z,72.00
2022-10-01T11:24:43.016Z,72.36
2022-10-01T11:27:36.604Z,72.55
2022-10-01T11:30:25.542Z,70.53
2022-10-01T11:33:23.714Z,69.05
2022-10-01T11:36:25.285Z,68.42
2022-10-01T11:39:03.215Z,65.47
2022-10-01T11:41:31.257Z,66.28
2022-10-01T11:44:30.479Z,67.20
2022-10-01T11:47:11.014Z,68.65
2022-10-01T11:49:49.026Z,68.86
2022-10-01T11:52:16.186Z,67.43
2022-10-01T11:54:56.318Z,65.39
2022-10-01T11:57:42.736Z,65.51
2022-10-01T12:00:11.801Z,64.80
2022-10-01T12:02:51.256Z,64.34
2022-10-01T12:05:30.133Z,64.73
2022-10-01T12:07:57.438Z,65.02
2022-10-01T12:10:43.516Z,64.52
2022-10-01T12:13:23.075Z,65.45
2022-10-01T12:15:58.402Z,63.76
2022-10-01T12:18:32.201Z,64.53
2022-10-01T12:21:01.985Z,64.17
2022-10-01T12:23:32.826Z,65.61
2022-10-01T12:26:41.573Z,66.68
2022-10-01T12:29:13.655Z,66.34
2022-10-01T12:31:47.135Z,64.76
2022-10-01T12:34:22.916Z,64.49
2022-10-01T12:36:59.247Z,62.78
2022-10-01T12:39:32.447Z,62.39
2022-10-01T12:42:18.658Z,63.59
2022-10-01T12:45:04.536Z,62.38
2022-10-01T12:48:00.351Z,63.61
2022-10-01T12:50:40.916Z,62.30
2022-10-01T12:53:31.215Z,63.68
2022-10-01T12:56:10.034Z,62.33
2022-10-01T12:59:06.875Z,63.80
2022-10-01T13:05:13.473Z,63.48
2022-10-01T13:07:58.748Z,64.08
2022-10-01T13:11:02.776Z,63.93
2022-10-01T13:13:35.060Z,64.92
2022-10-01T13:16:13.536Z,64.66
2022-10-01T13:19:03.521Z,64.37
2022-10-01T13:21:57.906Z,64.51
2022-10-01T13:24:40.319Z,63.28
2022-10-01T13:27:14.026Z,62.62
2022-10-01T13:30:18.839Z,62.99
2022-10-01T13:32:54.020Z,64.81
2022-10-01T13:35:21.681Z,64.21
2022-10-01T13:37:48.800Z,64.68
2022-10-01T13:40:34.295Z,64.97
2022-10-01T13:43:20.378Z,64.32
2022-10-01T13:45:50.403Z,64.41
2022-10-01T13:48:20.764Z,64.64
2022-10-01T13:51:05.596Z,64.14
2022-10-01T13:53:48.029Z,64.28
2022-10-01T13:56:28.750Z,64.47
2022-10-01T13:58:56.416Z,64.87
2022-10-01T14:01:24.452Z,65.13
2022-10-01T14:04:19.397Z,65.48
2022-10-01T14:06:59.467Z,65.61
2022-10-01T14:09:32.929Z,66.10
2022-10-01T14:12:27.953Z,66.28
2022-10-01T14:15:18.555Z,66.31
2022-10-01T14:17:48.075Z,66.35
2022-10-01T14:20:24.586Z,66.80
2022-10-01T14:23:06.733Z,67.30
2022-10-01T14:25:44.826Z,67.66
2022-10-01T14:28:47.102Z,68.23
2022-10-01T14:31:20.217Z,68.35
2022-10-01T14:34:04.236Z,68.82
2022-10-01T14:36:37.800Z,69.33
2022-10-01T14:39:14.096Z,69.64
2022-10-01T14:41:41.963Z,70.03
2022-10-01T14:44:30.114Z,70.34
2022-10-01T14:46:59.415Z,70.16
2022-10-01T14:49:31.505Z,69.78
2022-10-01T14:52:07.293Z,70.62
2022-10-01T14:54:54.809Z,72.20
2022-10-01T14:57:34.285Z,75.51
2022-10-01T15:00:07.909Z,77.68
2022-10-01T15:02:35.344Z,78.84
2022-10-01T15:05:02.766Z,79.04
2022-10-01T15:07:37.389Z,80.40
2022-10-01T15:10:08.740Z,81.00
2022-10-01T15:12:41.503Z,81.51
2022-10-01T15:15:32.368Z,81.90
2022-10-01T15:17:59.815Z,81.77
2022-10-01T15:20:27.804Z,82.17
2022-10-01T15:23:01.070Z,82.37
2022-10-01T15:25:30.189Z,82.53
2022-10-01T15:27:57.663Z,82.79
2022-10-01T15:30:27.794Z,81.79
2022-10-01T15:32:55.311Z,80.59
2022-10-01T15:35:23.275Z,80.43
2022-10-01T15:37:52.014Z,80.05
2022-10-01T15:40:28.731Z,79.29
2022-10-01T15:43:08.075Z,79.12
2022-10-01T15:45:36.156Z,79.08
2022-10-01T15:48:03.715Z,79.86
2022-10-01T15:50:39.154Z,80.56
2022-10-01T15:53:11.057Z,81.50
2022-10-01T15:55:53.510Z,80.94
2022-10-01T15:58:35.618Z,80.88
2022-10-01T16:01:06.114Z,81.12
2022-10-01T16:03:53.158Z,81.43
2022-10-01T16:06:28.267Z,81.87
2022-10-01T16:09:19.251Z,82.34
2022-10-01T16:12:00.125Z,82.73
2022-10-01T16:14:37.810Z,82.95
2022-10-01T16:17:18.449Z,83.13
2022-10-01T16:19:50.078Z,83.52
2022-10-01T16:22:27.481Z,83.62
2022-10-01T16:25:01.290Z,83.57
2022-10-01T16:27:56.952Z,83.87
2022-10-01T16:30:29.935Z,84.20
2022-10-01T16:33:03.175Z,84.31
2022-10-01T16:35:46.105Z,84.50
2022-10-01T16:38:13.788Z,84.72
2022-10-01T16:40:50.833Z,84.95
2022-10-01T16:43:24.510Z,84.63
2022-10-01T16:45:52.647Z,84.68
2022-10-01T16:48:25.866Z,85.02
2022-10-01T16:50:55.329Z,85.02
2022-10-01T16:53:32.444Z,85.17
2022-10-01T16:56:03.133Z,85.24
2022-10-01T16:58:39.344Z,85.52
2022-10-01T17:01:10.790Z,85.56
2022-10-01T17:03:41.275Z,85.75
2022-10-01T17:06:11.208Z,85.72
2022-10-01T17:08:38.797Z,85.67
2022-10-01T17:11:09.494Z,86.12
2022-10-01T17:13:39.292Z,86.17
2022-10-01T17:16:07.048Z,86.24
2022-10-01T17:18:34.413Z,86.35
2022-10-01T17:21:05.985Z,86.52
2022-10-01T17:23:35.736Z,86.41
2022-10-01T17:26:06.655Z,86.51
2022-10-01T17:28:33.987Z,86.53
2022-10-01T17:31:06.924Z,86.82
2022-10-01T17:33:34.520Z,86.94
2022-10-01T17:36:16.992Z,87.07
2022-10-01T17:38:47.025Z,87.11
2022-10-01T17:41:14.285Z,87.17
2022-10-01T17:43:42.425Z,87.16
2022-10-01T17:46:09.865Z,87.25
2022-10-01T17:48:37.069Z,87.42
2022-10-01T17:51:07.826Z,87.43
2022-10-01T17:53:42.197Z,87.48
2022-10-01T17:56:14.981Z,87.57
2022-10-01T17:58:45.360Z,87.64
2022-10-01T18:01:23.079Z,87.66
2022-10-01T18:03:55.839Z,87.73
2022-10-01T18:06:24.373Z,87.80
2022-10-01T18:08:55.585Z,87.78
2022-10-01T18:11:26.092Z,87.57
2022-10-01T18:13:53.823Z,87.80
2022-10-01T18:16:25.586Z,87.85
2022-10-01T18:22:00.562Z,88.12
2022-10-01T18:24:36.963Z,88.18
2022-10-01T18:27:13.782Z,88.04
2022-10-01T18:29:50.072Z,88.38
2022-10-01T18:32:28.946Z,88.54
2022-10-01T18:35:10.129Z,89.12
2022-10-01T18:38:04.872Z,89.28
2022-10-01T18:41:17.151Z,89.55
2022-10-01T18:44:04.075Z,89.89
2022-10-01T18:46:56.357Z,90.21
2022-10-01T18:50:20.692Z,90.40
2022-10-01T18:53:12.269Z,90.57
2022-10-01T18:56:14.936Z,90.96
2022-10-01T18:58:48.741Z,91.15
2022-10-01T19:01:42.961Z,91.45
2022-10-01T19:04:30.880Z,91.61
2022-10-01T19:07:04.596Z,91.47
2022-10-01T19:09:40.397Z,91.47
2022-10-01T19:12:44.910Z,91.91
2022-10-01T19:15:15.237Z,92.08
2022-10-01T19:18:09.633Z,92.01
2022-10-01T19:20:53.603Z,92.36
2022-10-01T19:23:43.435Z,92.65
2022-10-01T19:26:23.104Z,92.67
2022-10-01T19:29:06.174Z,92.69
2022-10-01T19:31:38.855Z,92.96
2022-10-01T19:34:11.561Z,92.85
2022-10-01T19:36:46.956Z,92.93
2022-10-01T19:39:23.271Z,92.98
2022-10-01T19:41:59.654Z,93.14
2022-10-01T19:44:36.872Z,93.40
2022-10-01T19:47:41.988Z,93.30
2022-10-01T19:50:34.679Z,93.21
2022-10-01T19:53:04.009Z,93.19
2022-10-01T19:55:38.710Z,93.34
2022-10-01T19:58:15.044Z,93.20
2022-10-01T20:00:43.907Z,93.01
2022-10-01T20:03:19.381Z,93.10
2022-10-01T20:05:53.316Z,93.15
2022-10-01T20:08:29.786Z,93.22
2022-10-01T20:11:16.667Z,93.11
2022-10-01T20:13:50.755Z,93.07
2022-10-01T20:16:44.413Z,93.07
2022-10-01T20:19:27.194Z,93.25
2022-10-01T20:21:54.595Z,93.18
2022-10-01T20:24:30.235Z,93.07
2022-10-01T20:27:20.382Z,93.26
2022-10-01T20:30:01.604Z,93.26
2022-10-01T20:32:39.656Z,93.25
2022-10-01T20:35:13.559Z,93.34
2022-10-01T20:38:13.077Z,93.45
2022-10-01T20:40:50.020Z,93.51
2022-10-01T20:43:21.860Z,93.56
2022-10-01T20:45:51.875Z,93.46
2022-10-01T20:48:28.565Z,93.47
2022-10-01T20:51:07.199Z,93.59
2022-10-01T20:53:45.879Z,93.51
2022-10-01T20:56:35.609Z,93.44
2022-10-01T20:59:28.205Z,93.36
2022-10-01T21:02:16.558Z,93.28
2022-10-01T21:05:14.436Z,93.01
2022-10-01T21:07:52.041Z,92.75
2022-10-01T21:10:45.498Z,92.66
2022-10-01T21:13:39.876Z,92.26
2022-10-01T21:16:25.900Z,92.13
2022-10-01T21:19:17.804Z,92.12
2022-10-01T21:22:20.310Z,91.93
2022-10-01T21:25:17.226Z,92.05
2022-10-01T21:28:00.895Z,92.17
2022-10-01T21:30:54.369Z,92.00
2022-10-01T21:33:34.325Z,91.96
2022-10-01T21:36:14.529Z,92.12
2022-10-01T21:38:46.176Z,92.43
2022-10-01T21:41:14.379Z,93.10
2022-10-01T21:43:45.319Z,93.16
2022-10-01T21:46:26.214Z,93.53
2022-10-01T21:49:18.119Z,93.69
2022-10-01T21:51:55.852Z,93.75
2022-10-01T21:54:41.497Z,93.91
2022-10-01T21:57:36.491Z,94.53
2022-10-01T22:00:21.557Z,94.89
2022-10-01T22:03:07.793Z,94.94
2022-10-01T22:05:54.390Z,94.76
2022-10-01T22:08:28.642Z,94.76
2022-10-01T22:11:00.049Z,94.78
2022-10-01T22:13:37.590Z,94.68
2022-10-01T22:16:11.218Z,94.49
2022-10-01T22:18:45.828Z,94.53
2022-10-01T22:21:18.216Z,94.24
2022-10-01T22:23:58.317Z,94.12
2022-10-01T22:26:28.488Z,93.89
2022-10-01T22:28:56.465Z,93.72
2022-10-01T22:31:29.054Z,93.65
2022-10-01T22:34:01.654Z,93.49
2022-10-01T22:36:41.659Z,93.28
2022-10-01T22:39:22.742Z,93.24
2022-10-01T22:41:56.335Z,93.25
2022-10-01T22:44:24.231Z,92.88
2022-10-01T22:47:04.429Z,92.85
2022-10-01T22:49:53.107Z,92.90
2022-10-01T22:52:55.603Z,92.74
2022-10-01T22:55:54.079Z,92.83
2022-10-01T22:58:25.624Z,92.89
2022-10-01T23:01:39.155Z,92.64
2022-10-01T23:04:23.421Z,92.64
2022-10-01T23:07:07.733Z,92.89
2022-10-01T23:14:19.906Z,93.09
2022-10-01T23:16:52.720Z,93.28
2022-10-01T23:19:33.866Z,93.30
2022-10-01T23:22:01.030Z,93.13
2022-10-01T23:24:45.660Z,93.09
2022-10-01T23:27:35.923Z,93.11
2022-10-01T23:30:05.665Z,92.87
2022-10-01T23:32:55.563Z,92.59
2022-10-01T23:35:30.498Z,92.25
2022-10-01T23:38:10.201Z,91.97
2022-10-01T23:40:44.184Z,91.63
2022-10-01T23:43:40.012Z,91.42
2022-10-01T23:46:31.472Z,91.05
2022-10-01T23:49:04.373Z,90.54
2022-10-01T23:51:45.034Z,89.80
2022-10-01T23:54:52.551Z,89.15
2022-10-01T23:57:36.995Z,88.75
